Accueil
METAR-TAF:

METAR-TAF

Aéroports :

Orange, France

Base aérienne 115 Orange-Caritat

latitude: 44-08N, longitude: 004-50E, altitude: 60 m

Observation

Le bulletin a été fait il y a 33 minutes, à 08:30 UTC
Vent 24 kt de nord
Température 7°C
Humidité 70%
Pression 1012 hPa
Visibilité 10 km ou plus
pas de nuages en-dessous de 1500 mètres et pas de cumulonimbus.

METAR: LFMO 270830Z AUTO 35024KT CAVOK 07/02 Q1012 BECMG 35025G35KT

Heure: 11:03 (09:03 UTC)

Prévision

Le bulletin a été fait il y a 1 heure et 3 minutes, à 08:00 UTC
Prévision valable du 27 à 09 UTC au 28 à 09 UTC
Vent 25 kt de nord avec des rafales jusqu'à 35 kt
Visibilité 10 km ou plus
pas de nuages en-dessous de 1500 mètres et pas de cumulonimbus.
Temporairement
du 27 à 19 UTC au 28 à 07 UTC
Vent 20 kt de nord avec des rafales jusqu'à 30 kt

TAF: LFMO 270800Z 2709/2809 35025G35KT CAVOK TEMPO 2719/2807 35020G30KT

Observations et prévisions météorologiques de plus de 4000 aéroports (messages METAR et TAF).

Les stations disponibles sont représentées par des disques jaunes et rouges sur la carte.

Passer la souris dessus pour voir le nom de la station.

Cliquer dessus pour voir les observations et prévisions météorologiques.

Pour changer de carte: cliquez sur les boutons verts avec une croix noire pour zoomer, sur le bouton vert avec un tiret pour effectuer un zoom arrière, ou sur les flèches vertes pour les cartes adjacentes.


METAR-TAF: